Weeting, United Kingdom
Current Conditions -  °F | °C
As of 5:58 PM on Saturday 20 Dec 2014 (Local Time) from EGUL Reporting Station
Clear Clear  
Wind Chill: 36°   Ceiling: Unl
Heat Index: 43°   Visibility: 6mi
Dew Point: 43°   Wind: 13mph
Humidity: 100%   Direction: 270°W
Pressure: 30.31"   Gusts: NA
Location:  52.46°N, 0.61°E
Report Text: EGUL 201758Z AUTO 27011KT 9999 CLR 06/06 A3031 RMK AO2 SLP268 T00610061 10091 20059 52024
Loading
Personal Weather Stations






























Interactive Weather Map New forecast layout! Learn more

10-Day Weather Forecast

Advertisements
Track Severe Weather on mobile